Clinton, OK (73601)

6:33 AM CDT on July 29, 2016 (GMT -0500)
Weatherford | | Change Station

Elev 1604 ft 35.54 °N, 98.67 °W | Updated 18 minutes ago

Mostly Cloudy
Mostly Cloudy
73 °F
Feels Like 73 °F
N
23
Wind Variable Wind from North
Gusts 30 mph

Today
High -- | Low -- °F
--% Chance of Precip.
Yesterday
High -- | Low -- °F
Precip. -- in
Pressure 30.07 in
Visibility 10.0 miles
Clouds Scattered Clouds 2000 ft
Scattered Clouds 4200 ft
Mostly Cloudy 8500 ft
Dew Point 68 °F
Humidity 83%
Rainfall 0.00 in
Snow Depth Not available.
6:42 AM 8:41 PM
Waning Crescent, 23% visible
METAR KOJA 291115Z AUTO 01020G26KT 10SM SCT020 SCT042 BKN085 23/20 A3007 RMK AO2 LTG DSNT NW THRU E
Pressure 30.07 in
Visibility 10.0 miles
Clouds Scattered Clouds 2000 ft
Scattered Clouds 4200 ft
Mostly Cloudy 8500 ft
Dew Point 68 °F
Humidity 83%
Rainfall 0.00 in
Snow Depth Not available.
6:42 AM 8:41 PM
Waning Crescent, 23% visible
METAR KOJA 291115Z AUTO 01020G26KT 10SM SCT020 SCT042 BKN085 23/20 A3007 RMK AO2 LTG DSNT NW THRU E

10-Day Weather Forecast

Almanac

Astronomy

Jul. 29, 2016 Rise Set
Actual Time
Civil Twilight
Nautical Twilight
Astronomical Twilight
Moon
Length of Visible Light
Length of Day
Tomorrow will be .
, % of the Moon is Illuminated

Today's Extremes

State Highs State Lows

Community

WunderPhotos

Upload Photos

1,928,315 photos uploaded!

WunderBlog® & News

Nearby

Air Quality

  Air Quality AQ Index Pollutant
Not available.

Snow Depth

Station Depth Elevation

Earthquake Activity

City Distance Mag. Time & Date
Minimum magnitude displayed is 2.5.

Coastal Water Temperatures

Place Temperature

Stations

Nearby Weather Stations

Station Location Temp. Windchill Dew Point Humidity Wind Precip. Elev Updated Type
                   

Watches & Warnings

There are currently no watches in effect.